createdAt,value
2023-03-16T00:01:15.978Z,2.20
2023-03-16T00:03:47.796Z,2.23
2023-03-16T00:06:19.482Z,3.13
2023-03-16T00:08:51.221Z,2.40
2023-03-16T00:11:22.885Z,2.70
2023-03-16T00:13:54.822Z,3.07
2023-03-16T00:16:26.655Z,2.40
2023-03-16T00:18:59.238Z,2.63
2023-03-16T00:21:32.101Z,2.63
2023-03-16T00:24:04.119Z,2.47
2023-03-16T00:26:35.860Z,2.53
2023-03-16T00:29:07.645Z,2.77
2023-03-16T00:31:43.791Z,2.23
2023-03-16T00:34:15.645Z,2.77
2023-03-16T00:36:47.650Z,1.93
2023-03-16T00:39:20.580Z,1.93
2023-03-16T00:41:52.337Z,1.90
2023-03-16T00:44:24.120Z,1.93
2023-03-16T00:46:57.592Z,2.87
2023-03-16T00:49:29.376Z,2.23
2023-03-16T00:52:02.558Z,2.57
2023-03-16T00:54:34.851Z,2.67
2023-03-16T00:57:06.549Z,2.27
2023-03-16T00:59:39.361Z,1.80
2023-03-16T01:02:12.366Z,2.50
2023-03-16T01:04:44.091Z,1.67
2023-03-16T01:07:15.839Z,2.43
2023-03-16T01:09:47.955Z,2.70
2023-03-16T01:12:20.324Z,2.33
2023-03-16T01:14:52.322Z,2.27
2023-03-16T01:17:24.063Z,3.03
2023-03-16T01:19:55.789Z,3.30
2023-03-16T01:22:28.589Z,2.93
2023-03-16T01:25:00.406Z,3.23
2023-03-16T01:27:32.950Z,3.53
2023-03-16T01:30:06.284Z,3.33
2023-03-16T01:32:39.890Z,3.57
2023-03-16T01:35:12.315Z,3.00
2023-03-16T01:37:44.133Z,3.27
2023-03-16T01:40:22.109Z,2.43
2023-03-16T01:43:04.860Z,2.40
2023-03-16T01:46:19.362Z,2.47
2023-03-16T01:49:05.553Z,3.73
2023-03-16T01:51:44.390Z,4.07
2023-03-16T01:54:40.028Z,4.10
2023-03-16T01:57:18.292Z,4.93
2023-03-16T02:00:20.589Z,4.37
2023-03-16T02:03:16.906Z,5.27
2023-03-16T02:06:08.589Z,4.47
2023-03-16T02:08:43.505Z,4.47
2023-03-16T02:11:18.630Z,4.00
2023-03-16T02:14:11.836Z,4.77
2023-03-16T02:16:47.867Z,4.87
2023-03-16T02:19:33.825Z,4.40
2023-03-16T02:22:10.278Z,3.90
2023-03-16T02:24:42.612Z,3.57
2023-03-16T02:27:23.742Z,5.17
2023-03-16T02:30:12.992Z,4.27
2023-03-16T02:32:57.371Z,4.43
2023-03-16T02:35:29.187Z,3.47
2023-03-16T02:38:01.918Z,2.83
2023-03-16T02:40:38.739Z,4.57
2023-03-16T02:43:24.432Z,4.20
2023-03-16T02:46:15.627Z,3.73
2023-03-16T02:49:17.731Z,3.80
2023-03-16T02:51:49.869Z,4.13
2023-03-16T02:54:22.317Z,3.00
2023-03-16T02:56:54.300Z,2.87
2023-03-16T02:59:27.607Z,3.63
2023-03-16T03:01:59.577Z,3.10
2023-03-16T03:04:33.063Z,3.37
2023-03-16T03:07:05.460Z,3.37
2023-03-16T03:09:49.225Z,2.80
2023-03-16T03:12:21.004Z,3.37
2023-03-16T03:14:52.810Z,3.67
2023-03-16T03:17:32.133Z,4.33
2023-03-16T03:20:13.813Z,2.80
2023-03-16T03:22:49.788Z,3.37
2023-03-16T03:25:22.709Z,2.73
2023-03-16T03:27:57.169Z,2.83
2023-03-16T03:30:30.182Z,2.40
2023-03-16T03:33:02.138Z,3.23
2023-03-16T03:35:34.653Z,3.43
2023-03-16T03:38:08.094Z,2.87
2023-03-16T03:40:40.259Z,3.93
2023-03-16T03:43:12.019Z,2.80
2023-03-16T03:45:47.274Z,3.33
2023-03-16T03:48:19.187Z,3.53
2023-03-16T03:50:51.349Z,3.40
2023-03-16T03:53:40.152Z,2.90
2023-03-16T03:56:25.945Z,2.50
2023-03-16T03:58:58.163Z,3.57
2023-03-16T04:01:50.016Z,2.80
2023-03-16T04:04:22.029Z,3.80
2023-03-16T04:06:53.767Z,3.37
2023-03-16T04:09:27.463Z,2.83
2023-03-16T04:12:00.537Z,2.90
2023-03-16T04:14:32.555Z,2.43
2023-03-16T04:17:07.400Z,2.67
2023-03-16T04:19:41.601Z,2.87
2023-03-16T04:22:18.622Z,2.80
2023-03-16T04:24:52.264Z,2.10
2023-03-16T04:27:24.420Z,3.10
2023-03-16T04:29:59.612Z,2.63
2023-03-16T04:32:34.123Z,2.33
2023-03-16T04:35:07.254Z,2.40
2023-03-16T04:37:48.790Z,2.87
2023-03-16T04:40:21.270Z,3.23
2023-03-16T04:42:59.450Z,1.90
2023-03-16T04:45:32.747Z,2.87
2023-03-16T04:48:05.571Z,2.67
2023-03-16T04:50:37.525Z,1.90
2023-03-16T04:53:09.811Z,1.97
2023-03-16T04:55:41.841Z,2.60
2023-03-16T04:58:13.872Z,2.27
2023-03-16T05:00:45.778Z,3.33
2023-03-16T05:03:24.900Z,2.67
2023-03-16T05:05:56.722Z,2.77
2023-03-16T05:08:30.044Z,3.07
2023-03-16T05:11:01.902Z,2.63
2023-03-16T05:13:37.878Z,3.00
2023-03-16T05:16:09.676Z,2.50
2023-03-16T05:18:44.921Z,2.87
2023-03-16T05:21:16.967Z,3.83
2023-03-16T05:24:08.976Z,2.60
2023-03-16T05:26:41.043Z,3.07
2023-03-16T05:29:16.621Z,2.93
2023-03-16T05:31:49.989Z,3.60
2023-03-16T05:34:26.192Z,2.50
2023-03-16T05:36:58.337Z,3.23
2023-03-16T05:39:34.350Z,3.50
2023-03-16T05:42:06.343Z,3.57
2023-03-16T05:44:54.021Z,3.27
2023-03-16T05:47:40.734Z,2.67
2023-03-16T05:50:16.967Z,3.13
2023-03-16T05:52:49.777Z,2.77
2023-03-16T05:55:26.474Z,2.83
2023-03-16T05:58:05.664Z,3.33
2023-03-16T06:00:39.474Z,3.07
2023-03-16T06:03:22.779Z,3.27
2023-03-16T06:05:55.741Z,3.40
2023-03-16T06:08:34.952Z,4.00
2023-03-16T06:11:12.913Z,3.17
2023-03-16T06:13:45.615Z,2.53
2023-03-16T06:16:17.671Z,2.67
2023-03-16T06:18:50.156Z,3.43
2023-03-16T06:21:22.750Z,3.57
2023-03-16T06:23:57.604Z,3.00
2023-03-16T06:26:29.778Z,3.30
2023-03-16T06:29:02.110Z,2.97
2023-03-16T06:31:34.302Z,4.07
2023-03-16T06:34:07.831Z,3.60
2023-03-16T06:36:39.859Z,3.03
2023-03-16T06:39:15.879Z,3.77
2023-03-16T06:41:51.411Z,3.63
2023-03-16T06:44:23.470Z,3.60
2023-03-16T06:47:02.424Z,3.40
2023-03-16T06:49:34.287Z,3.10
2023-03-16T06:52:10.751Z,3.13
2023-03-16T06:54:42.683Z,3.87
2023-03-16T06:57:14.760Z,5.50
2023-03-16T06:59:47.894Z,4.13
2023-03-16T07:02:19.978Z,4.27
2023-03-16T07:04:51.898Z,4.17
2023-03-16T07:07:24.495Z,3.40
2023-03-16T07:09:56.195Z,3.53
2023-03-16T07:12:28.035Z,4.30
2023-03-16T07:14:59.835Z,2.87
2023-03-16T07:17:32.294Z,2.70
2023-03-16T07:20:10.562Z,2.83
2023-03-16T07:22:43.246Z,3.30
2023-03-16T07:25:17.124Z,2.93
2023-03-16T07:27:54.316Z,3.63
2023-03-16T07:30:32.366Z,3.50
2023-03-16T07:33:05.455Z,3.03
2023-03-16T07:35:38.138Z,2.83
2023-03-16T07:38:12.124Z,3.10
2023-03-16T07:40:45.394Z,3.23
2023-03-16T07:43:24.573Z,2.50
2023-03-16T07:45:57.382Z,3.50
2023-03-16T07:48:30.162Z,2.60
2023-03-16T07:51:06.472Z,2.87
2023-03-16T07:53:39.338Z,3.40
2023-03-16T07:56:22.928Z,2.40
2023-03-16T07:58:58.314Z,3.40
2023-03-16T08:01:30.268Z,3.13
2023-03-16T08:04:02.335Z,2.20
2023-03-16T08:06:34.736Z,1.83
2023-03-16T08:09:07.974Z,2.50
2023-03-16T08:11:43.303Z,3.63
2023-03-16T08:14:15.561Z,2.93
2023-03-16T08:17:05.499Z,2.00
2023-03-16T08:19:38.729Z,2.73
2023-03-16T08:22:12.972Z,3.37
2023-03-16T08:24:49.046Z,2.20
2023-03-16T08:27:22.569Z,2.00
2023-03-16T08:30:04.764Z,3.57
2023-03-16T08:32:39.766Z,2.77
2023-03-16T08:35:15.354Z,3.20
2023-03-16T08:37:47.412Z,3.33
2023-03-16T08:40:20.153Z,2.70
2023-03-16T08:42:54.354Z,2.97
2023-03-16T08:45:26.550Z,3.23
2023-03-16T08:47:58.692Z,3.53
2023-03-16T08:50:31.000Z,2.70
2023-03-16T08:53:02.982Z,2.87
2023-03-16T08:55:36.974Z,2.77
2023-03-16T08:58:10.427Z,2.67
2023-03-16T09:00:44.309Z,3.03
2023-03-16T09:03:17.216Z,3.63
2023-03-16T09:05:49.454Z,3.90
2023-03-16T09:08:21.365Z,3.10
2023-03-16T09:11:00.436Z,3.00
2023-03-16T09:13:33.171Z,3.10
2023-03-16T09:16:05.920Z,3.17
2023-03-16T09:18:38.312Z,3.57
2023-03-16T09:21:13.843Z,3.20
2023-03-16T09:23:45.794Z,2.80
2023-03-16T09:26:17.681Z,3.23
2023-03-16T09:28:49.707Z,2.80
2023-03-16T09:31:22.784Z,3.40
2023-03-16T09:33:54.568Z,3.20
2023-03-16T09:36:27.130Z,3.53
2023-03-16T09:38:58.864Z,3.13
2023-03-16T09:41:52.456Z,3.40
2023-03-16T09:44:37.924Z,3.33
2023-03-16T09:47:12.090Z,3.20
2023-03-16T09:49:47.693Z,2.43
2023-03-16T09:52:51.884Z,2.57
2023-03-16T09:55:32.293Z,3.03
2023-03-16T09:58:09.388Z,3.70
2023-03-16T10:00:46.153Z,3.80
2023-03-16T10:03:39.882Z,3.27
2023-03-16T10:06:13.860Z,2.73
2023-03-16T10:09:00.168Z,3.57
2023-03-16T10:11:46.355Z,2.87
2023-03-16T10:14:36.719Z,2.77
2023-03-16T10:17:30.701Z,3.37
2023-03-16T10:20:09.039Z,3.33
2023-03-16T10:22:44.828Z,3.83
2023-03-16T10:25:35.412Z,3.60
2023-03-16T10:28:07.432Z,4.60
2023-03-16T10:30:42.318Z,3.70
2023-03-16T10:33:29.556Z,3.87
2023-03-16T10:36:27.259Z,4.53
2023-03-16T10:39:03.267Z,3.50
2023-03-16T10:41:37.377Z,4.50
2023-03-16T10:44:26.830Z,4.63
2023-03-16T10:47:01.718Z,4.63
2023-03-16T10:49:42.014Z,4.80
2023-03-16T10:52:13.890Z,4.33
2023-03-16T10:54:58.233Z,4.10
2023-03-16T10:57:31.594Z,5.03
2023-03-16T11:00:14.306Z,4.67
2023-03-16T11:02:47.619Z,4.33
2023-03-16T11:05:19.347Z,4.43
2023-03-16T11:08:01.340Z,5.00
2023-03-16T11:10:49.368Z,5.73
2023-03-16T11:13:33.326Z,5.27
2023-03-16T11:16:14.157Z,4.80
2023-03-16T11:18:50.501Z,4.40
2023-03-16T11:21:35.100Z,5.73
2023-03-16T11:24:24.127Z,4.83
2023-03-16T11:26:58.721Z,5.53
2023-03-16T11:29:59.460Z,6.03
2023-03-16T11:32:38.973Z,4.53
2023-03-16T11:35:16.338Z,5.70
2023-03-16T11:38:12.594Z,5.03
2023-03-16T11:40:58.572Z,4.60
2023-03-16T11:43:39.523Z,5.37
2023-03-16T11:46:36.756Z,5.13
2023-03-16T11:49:45.070Z,4.70
2023-03-16T11:52:20.564Z,4.90
2023-03-16T11:55:06.362Z,4.30
2023-03-16T11:57:57.486Z,5.00
2023-03-16T12:00:58.424Z,4.13
2023-03-16T12:03:36.615Z,3.73
2023-03-16T12:06:47.057Z,4.27
2023-03-16T12:09:38.194Z,3.57
2023-03-16T12:12:22.133Z,3.20
2023-03-16T12:15:12.460Z,3.20
2023-03-16T12:17:46.091Z,3.70
2023-03-16T12:20:31.721Z,4.07
2023-03-16T12:23:14.920Z,3.77
2023-03-16T12:25:49.140Z,3.10
2023-03-16T12:28:26.634Z,3.83
2023-03-16T12:31:14.118Z,4.37
2023-03-16T12:34:08.269Z,3.37
2023-03-16T12:36:54.821Z,2.60
2023-03-16T12:39:51.560Z,3.27
2023-03-16T12:42:52.271Z,3.30
2023-03-16T12:45:38.996Z,2.57
2023-03-16T12:48:15.992Z,2.47
2023-03-16T12:50:54.064Z,3.13
2023-03-16T12:53:42.842Z,3.27
2023-03-16T12:56:21.517Z,3.43
2023-03-16T12:58:57.164Z,3.70
2023-03-16T13:01:41.120Z,2.43
2023-03-16T13:04:29.778Z,2.47
2023-03-16T13:07:07.912Z,2.40
2023-03-16T13:09:52.211Z,2.00
2023-03-16T13:12:25.923Z,2.90
2023-03-16T13:14:57.748Z,2.63
2023-03-16T13:17:32.308Z,2.63
2023-03-16T13:20:31.233Z,1.97
2023-03-16T13:23:24.087Z,2.50
2023-03-16T13:25:58.930Z,2.77
2023-03-16T13:28:34.303Z,2.30
2023-03-16T13:31:22.365Z,2.40
2023-03-16T13:33:56.815Z,2.10
2023-03-16T13:36:30.334Z,1.80
2023-03-16T13:39:13.380Z,2.60
2023-03-16T13:42:12.737Z,2.60
2023-03-16T13:44:45.454Z,2.17
2023-03-16T13:47:20.251Z,2.13
2023-03-16T13:49:58.351Z,2.10
2023-03-16T13:52:33.373Z,1.87
2023-03-16T13:55:18.364Z,1.60
2023-03-16T13:57:50.257Z,1.60
2023-03-16T14:00:22.616Z,1.57
2023-03-16T14:02:57.164Z,2.03
2023-03-16T14:05:35.242Z,1.70
2023-03-16T14:08:19.542Z,1.70
2023-03-16T14:10:54.412Z,1.80
2023-03-16T14:13:29.578Z,1.30
2023-03-16T14:16:10.216Z,1.50
2023-03-16T14:18:42.138Z,1.70
2023-03-16T14:21:22.206Z,1.60
2023-03-16T14:23:58.411Z,1.57
2023-03-16T14:26:41.616Z,1.53
2023-03-16T14:29:30.497Z,1.50
2023-03-16T14:32:02.398Z,1.70
2023-03-16T14:34:39.624Z,1.77
2023-03-16T14:37:13.930Z,1.80
2023-03-16T14:40:01.637Z,1.73
2023-03-16T14:42:33.979Z,1.77
2023-03-16T14:45:13.959Z,1.50
2023-03-16T14:47:47.805Z,1.73
2023-03-16T14:50:25.418Z,1.30
2023-03-16T14:52:57.419Z,1.40
2023-03-16T14:55:29.442Z,1.70
2023-03-16T14:58:01.700Z,1.43
2023-03-16T15:00:42.656Z,1.60
2023-03-16T15:03:33.170Z,1.30
2023-03-16T15:06:05.221Z,1.30
2023-03-16T15:08:44.309Z,1.40
2023-03-16T15:11:21.343Z,1.50
2023-03-16T15:13:53.800Z,1.43
2023-03-16T15:16:26.021Z,1.40
2023-03-16T15:18:58.866Z,1.50
2023-03-16T15:21:31.013Z,1.30
2023-03-16T15:24:03.291Z,1.27
2023-03-16T15:26:35.032Z,1.50
2023-03-16T15:29:06.868Z,1.50
2023-03-16T15:31:38.689Z,1.50
2023-03-16T15:34:10.436Z,1.10
2023-03-16T15:36:42.522Z,1.20
2023-03-16T15:39:23.733Z,1.10
2023-03-16T15:41:55.570Z,0.90
2023-03-16T15:44:28.008Z,1.13
2023-03-16T15:47:00.636Z,1.20
2023-03-16T15:49:46.653Z,0.90
2023-03-16T15:52:33.205Z,1.30
2023-03-16T15:55:08.342Z,0.70
2023-03-16T15:57:40.172Z,1.17
2023-03-16T16:00:29.556Z,0.90
2023-03-16T16:03:02.874Z,0.90
2023-03-16T16:05:34.625Z,0.80
2023-03-16T16:08:06.531Z,1.23
2023-03-16T16:10:39.665Z,1.03
2023-03-16T16:13:21.408Z,0.90
2023-03-16T16:15:54.726Z,0.77
2023-03-16T16:18:30.460Z,0.90
2023-03-16T16:21:06.497Z,1.10
2023-03-16T16:23:38.524Z,1.33
2023-03-16T16:26:18.079Z,1.77
2023-03-16T16:28:49.927Z,1.20
2023-03-16T16:31:26.178Z,1.07
2023-03-16T16:33:59.095Z,1.30
2023-03-16T16:36:32.467Z,0.80
2023-03-16T16:39:06.152Z,1.13
2023-03-16T16:41:38.766Z,1.00
2023-03-16T16:44:23.589Z,1.17
2023-03-16T16:46:56.089Z,1.37
2023-03-16T16:49:30.640Z,1.23
2023-03-16T16:52:03.692Z,1.00
2023-03-16T16:54:36.896Z,1.03
2023-03-16T16:57:17.056Z,0.90
2023-03-16T16:59:49.269Z,1.00
2023-03-16T17:02:42.287Z,0.83
2023-03-16T17:05:26.118Z,0.70
2023-03-16T17:08:03.441Z,0.53
2023-03-16T17:10:37.820Z,0.80
2023-03-16T17:13:38.841Z,1.10
2023-03-16T17:16:16.720Z,0.67
2023-03-16T17:18:49.555Z,0.80
2023-03-16T17:21:24.082Z,0.57
2023-03-16T17:23:56.892Z,0.90
2023-03-16T17:26:34.367Z,0.57
2023-03-16T17:29:22.950Z,0.83
2023-03-16T17:31:54.718Z,0.83
2023-03-16T17:34:29.045Z,0.87
2023-03-16T17:37:01.940Z,0.83
2023-03-16T17:39:34.396Z,0.57
2023-03-16T17:42:12.085Z,0.70
2023-03-16T17:44:47.261Z,1.23
2023-03-16T17:47:24.611Z,1.20
2023-03-16T17:49:57.179Z,1.30
2023-03-16T17:52:29.740Z,0.83
2023-03-16T17:55:01.600Z,0.77
2023-03-16T17:57:34.081Z,0.80
2023-03-16T18:00:32.600Z,0.80
2023-03-16T18:03:17.288Z,0.80
2023-03-16T18:05:49.265Z,1.00
2023-03-16T18:08:34.086Z,0.60
2023-03-16T18:11:12.922Z,0.63
2023-03-16T18:13:45.445Z,1.10
2023-03-16T18:16:25.325Z,1.00
2023-03-16T18:19:05.645Z,1.00
2023-03-16T18:21:37.536Z,0.87
2023-03-16T18:24:15.945Z,1.27
2023-03-16T18:26:48.131Z,1.53
2023-03-16T18:29:20.321Z,1.50
2023-03-16T18:31:55.098Z,1.30
2023-03-16T18:34:30.499Z,1.03
2023-03-16T18:37:06.088Z,1.13
2023-03-16T18:39:37.807Z,1.90
2023-03-16T18:42:21.663Z,2.10
2023-03-16T18:44:53.856Z,1.30
2023-03-16T18:47:31.431Z,1.40
2023-03-16T18:50:03.267Z,1.90
2023-03-16T18:52:37.836Z,1.67
2023-03-16T18:55:18.718Z,1.80
2023-03-16T18:57:52.772Z,1.63
2023-03-16T19:00:27.100Z,1.57
2023-03-16T19:03:03.081Z,1.83
2023-03-16T19:05:36.738Z,1.90
2023-03-16T19:08:12.582Z,1.30
2023-03-16T19:10:50.167Z,1.70
2023-03-16T19:13:22.659Z,1.90
2023-03-16T19:15:57.320Z,1.83
2023-03-16T19:18:29.367Z,1.90
2023-03-16T19:21:01.403Z,2.20
2023-03-16T19:23:36.161Z,1.43
2023-03-16T19:26:08.449Z,1.80
2023-03-16T19:28:43.505Z,2.27
2023-03-16T19:31:20.045Z,2.10
2023-03-16T19:33:52.468Z,2.50
2023-03-16T19:36:33.379Z,2.37
2023-03-16T19:39:05.265Z,2.00
2023-03-16T19:41:38.058Z,2.00
2023-03-16T19:44:17.669Z,2.33
2023-03-16T19:46:50.282Z,2.73
2023-03-16T19:49:25.864Z,2.70
2023-03-16T19:51:57.944Z,2.43
2023-03-16T19:54:33.351Z,3.00
2023-03-16T19:57:13.767Z,2.40
2023-03-16T19:59:50.201Z,2.80
2023-03-16T20:02:25.059Z,3.00
2023-03-16T20:04:56.832Z,2.40
2023-03-16T20:07:28.581Z,2.57
2023-03-16T20:10:00.719Z,2.67
2023-03-16T20:12:33.202Z,2.83
2023-03-16T20:15:05.223Z,2.23
2023-03-16T20:17:37.472Z,2.50
2023-03-16T20:20:19.327Z,2.17
2023-03-16T20:22:52.500Z,2.50
2023-03-16T20:25:26.776Z,2.23
2023-03-16T20:28:02.006Z,2.00
2023-03-16T20:30:34.342Z,2.33
2023-03-16T20:33:06.260Z,2.13
2023-03-16T20:35:38.098Z,2.60
2023-03-16T20:38:14.546Z,2.83
2023-03-16T20:40:50.251Z,2.80
2023-03-16T20:43:27.621Z,2.40
2023-03-16T20:46:01.469Z,2.57
2023-03-16T20:48:34.134Z,2.53
2023-03-16T20:51:05.948Z,2.70
2023-03-16T20:53:37.838Z,2.20
2023-03-16T20:56:25.849Z,2.83
2023-03-16T20:58:58.982Z,2.47
2023-03-16T21:01:32.052Z,2.47
2023-03-16T21:04:03.832Z,2.07
2023-03-16T21:06:35.538Z,2.20
2023-03-16T21:09:07.268Z,2.70
2023-03-16T21:11:39.415Z,2.00
2023-03-16T21:14:24.310Z,2.40
2023-03-16T21:16:56.364Z,1.87
2023-03-16T21:19:28.242Z,2.43
2023-03-16T21:21:59.953Z,2.30
2023-03-16T21:24:32.420Z,2.57
2023-03-16T21:27:04.138Z,2.40
2023-03-16T21:29:36.627Z,2.30
2023-03-16T21:32:30.820Z,2.57
2023-03-16T21:35:04.210Z,2.63
2023-03-16T21:37:35.931Z,1.80
2023-03-16T21:40:17.968Z,2.17
2023-03-16T21:42:50.292Z,2.67
2023-03-16T21:45:22.106Z,2.70
2023-03-16T21:47:53.951Z,2.33
2023-03-16T21:50:31.691Z,2.77
2023-03-16T21:53:03.545Z,2.40
2023-03-16T21:55:35.563Z,2.30
2023-03-16T21:58:09.319Z,2.37
2023-03-16T22:00:41.528Z,2.40
2023-03-16T22:03:37.808Z,2.23
2023-03-16T22:06:21.165Z,2.90
2023-03-16T22:08:53.036Z,3.17
2023-03-16T22:11:30.721Z,2.60
2023-03-16T22:14:02.658Z,2.37
2023-03-16T22:16:36.755Z,2.17
2023-03-16T22:19:12.697Z,2.90
2023-03-16T22:21:46.540Z,1.87
2023-03-16T22:24:22.119Z,2.17
2023-03-16T22:26:54.684Z,2.77
2023-03-16T22:29:29.522Z,2.37
2023-03-16T22:32:08.442Z,2.40
2023-03-16T22:34:52.346Z,2.30
2023-03-16T22:37:28.953Z,1.03
2023-03-16T22:40:01.576Z,1.03
2023-03-16T22:42:38.919Z,1.20
2023-03-16T22:45:18.982Z,0.97
2023-03-16T22:47:52.076Z,1.20
2023-03-16T22:50:27.505Z,1.30
2023-03-16T22:53:03.036Z,1.03
2023-03-16T22:55:40.267Z,0.93
2023-03-16T22:58:27.706Z,1.40
2023-03-16T23:01:06.773Z,1.00
2023-03-16T23:03:38.612Z,1.07
2023-03-16T23:06:20.406Z,1.03
2023-03-16T23:08:54.346Z,0.87
2023-03-16T23:11:31.942Z,1.50
2023-03-16T23:14:06.553Z,0.90
2023-03-16T23:16:38.421Z,0.77
2023-03-16T23:19:24.724Z,1.10
2023-03-16T23:22:00.018Z,0.90
2023-03-16T23:24:33.403Z,0.80
2023-03-16T23:27:13.873Z,0.57
2023-03-16T23:29:46.008Z,1.00
2023-03-16T23:32:17.808Z,1.53
2023-03-16T23:34:49.498Z,1.20
2023-03-16T23:37:21.371Z,0.80
2023-03-16T23:39:53.123Z,0.80
2023-03-16T23:42:24.827Z,0.80
2023-03-16T23:45:05.204Z,1.03
2023-03-16T23:47:37.518Z,0.90
2023-03-16T23:50:13.049Z,0.60
2023-03-16T23:52:44.892Z,0.80
2023-03-16T23:55:17.858Z,1.00
2023-03-16T23:57:49.904Z,0.80
